Terminal Aerodrome Forecast
Issued by NWS Buffalo, NY

Home | Current Version | Previous Version | Text Only | Print | Product List | Glossary On
Versions: 1 2 3 4 5 6 7 8 9 10 11 12 13 14 15 16 17 18 19 20 21 22 23 24 25 26 27 28
000
FTUS41 KBUF 242300
TAFART
TAF
KART 242336Z 2500/2524 22005KT P6SM BKN250
     FM250300 VRB03KT P6SM FEW250
     FM250900 00000KT P6SM BKN040
     FM251200 21004KT P6SM BKN020
     FM251600 22012G18KT P6SM BKN020
     FM252000 21013G19KT 5SM SHRA OVC025
     FM252200 22013G20KT P6SM -SHRA OVC040=

USA.gov is the U.S. government's official web portal to all federal, state and local government web resources and services.